Time;durP1;ratioP1;P1;durP2;ratioP2;P2;SDS_P1;SDS_P2;PMS_P1;PMS_P2;Temp;Humidity;BMP_temperature;BMP_pressure;BME280_temperature;BME280_humidity;BME280_pressure;Samples;Min_cycle;Max_cycle;Signal;HPM_P1;HPM_P2
2024/04/13 00:02:15;;;;;;;6.03;5.40;;;;;;;;;;6344483;22;20464;-87
2024/04/13 00:04:42;;;;;;;6.77;5.57;;;;;;;;;;6350218;22;20489;-86
2024/04/13 00:07:15;;;;;;;11.00;6.03;;;;;;;;;;6352508;22;20527;-87
2024/04/13 00:09:42;;;;;;;6.87;6.30;;;;;;;;;;6345629;22;20807;-87
2024/04/13 00:12:21;;;;;;;7.10;5.80;;;;;;;;;;6355293;22;20575;-87
2024/04/13 00:15:01;;;;;;;5.40;4.90;;;;;;;;;;6355995;22;20452;-85
2024/04/13 00:17:32;;;;;;;5.37;4.87;;;;;;;;;;6356071;22;20431;-85
2024/04/13 00:19:58;;;;;;;5.97;4.60;;;14.70;99.90;;;;;;6355613;22;20444;-86
2024/04/13 00:22:28;;;;;;;5.30;4.90;;;;;;;;;;6347486;22;20532;-88
2024/04/13 00:24:54;;;;;;;5.40;4.90;;;14.70;99.90;;;;;;6344516;22;20528;-87
2024/04/13 00:27:28;;;;;;;7.20;4.90;;;;;;;;;;6351133;22;20493;-87
2024/04/13 00:29:54;;;;;;;5.60;5.10;;;14.50;99.90;;;;;;6344830;22;20442;-87
2024/04/13 00:32:22;;;;;;;6.17;5.07;;;14.40;99.90;;;;;;6344654;22;20807;-86
2024/04/13 00:34:48;;;;;;;6.07;5.43;;;14.50;99.90;;;;;;6330417;22;20483;-87
2024/04/13 00:37:18;;;;;;;8.53;6.37;;;14.50;99.90;;;;;;6296290;22;20473;-87
2024/04/13 00:39:44;;;;;;;7.73;5.90;;;14.50;99.90;;;;;;6291776;22;20433;-88
2024/04/13 00:42:14;;;;;;;7.83;5.63;;;14.50;99.90;;;;;;6307621;22;20457;-88
2024/04/13 00:44:43;;;;;;;8.10;5.90;;;14.50;99.90;;;;;;6307130;22;20477;-87
2024/04/13 00:47:12;;;;;;;6.67;5.90;;;14.50;99.90;;;;;;6294785;22;20454;-87
2024/04/13 00:49:39;;;;;;;5.93;5.43;;;14.50;99.90;;;;;;6292275;22;20478;-87
2024/04/13 00:52:11;;;;;;;6.13;4.90;;;14.50;99.90;;;;;;6292844;22;20502;-87
2024/04/13 00:54:38;;;;;;;8.17;5.50;;;14.50;99.90;;;;;;6290229;22;20587;-86
2024/04/13 00:57:08;;;;;;;6.00;5.37;;;14.50;99.90;;;;;;6290282;22;20438;-86
2024/04/13 00:59:35;;;;;;;8.60;6.97;;;14.50;99.90;;;;;;6290391;22;20845;-86
2024/04/13 01:02:10;;;;;;;5.63;5.13;;;14.40;99.90;;;;;;6290399;22;20514;-87
2024/04/13 01:04:37;;;;;;;6.50;5.90;;;14.40;99.90;;;;;;6289829;22;20489;-86
2024/04/13 01:07:06;;;;;;;7.57;6.80;;;14.40;99.90;;;;;;6296367;22;20531;-85
2024/04/13 01:09:32;;;;;;;6.17;5.57;;;14.40;99.90;;;;;;6306609;22;20426;-84
2024/04/13 01:12:01;;;;;;;12.00;8.87;;;14.30;99.90;;;;;;6306848;22;20427;-86
2024/04/13 01:14:28;;;;;;;10.47;9.47;;;14.30;99.90;;;;;;6304214;22;20564;-86
2024/04/13 01:17:00;;;;;;;9.57;8.60;;;14.30;1.00;;;;;;6307047;22;20465;-85
2024/04/13 01:19:31;;;;;;;11.37;7.50;;;14.20;1.00;;;;;;6307542;22;20438;-85
2024/04/13 01:22:01;;;;;;;7.70;6.90;;;;;;;;;;6306994;22;20450;-85
2024/04/13 01:24:31;;;;;;;11.50;7.60;;;;;;;;;;6303521;22;20470;-86
2024/04/13 01:27:02;;;;;;;8.93;7.10;;;;;;;;;;6292988;22;20461;-86
2024/04/13 01:29:28;;;;;;;6.53;5.90;;;14.20;1.00;;;;;;6290968;22;20461;-86
2024/04/13 01:31:56;;;;;;;7.13;6.37;;;14.20;1.00;;;;;;6289572;22;20579;-85
2024/04/13 01:34:22;;;;;;;14.60;8.40;;;14.30;1.00;;;;;;6292947;22;20426;-85
2024/04/13 01:36:52;;;;;;;6.13;5.50;;;;;;;;;;6338540;22;20856;-85
2024/04/13 01:39:18;;;;;;;5.43;4.93;;;14.30;1.00;;;;;;6358329;22;20468;-86
2024/04/13 01:41:56;;;;;;;5.60;5.10;;;14.20;1.00;;;;;;6337469;22;20845;-85
2024/04/13 01:44:21;;;;;;;6.70;6.10;;;14.30;1.00;;;;;;6255119;22;20522;-86
2024/04/13 01:46:51;;;;;;;6.77;6.17;;;14.00;1.00;;;;;;6341253;22;20468;-86
2024/04/13 01:49:17;;;;;;;7.00;6.30;;;14.10;1.00;;;;;;6337059;22;20420;-86
2024/04/13 01:51:46;;;;;;;7.57;6.00;;;;;;;;;;6339054;22;20957;-86
2024/04/13 01:54:12;;;;;;;7.10;6.40;;;;;;;;;;6337736;22;20517;-86
2024/04/13 01:56:41;;;;;;;6.83;6.23;;;;;;;;;;6348383;22;20496;-85
2024/04/13 01:59:11;;;;;;;7.43;6.70;;;;;;;;;;6349254;22;20421;-85
2024/04/13 02:01:40;;;;;;;8.57;6.53;;;;;;;;;;6350341;22;20479;-85
2024/04/13 02:04:07;;;;;;;8.40;7.70;;;;;;;;;;6355311;22;20445;-85
2024/04/13 02:06:36;;;;;;;9.80;6.60;;;;;;;;;;6347019;22;20473;-85
2024/04/13 02:09:03;;;;;;;7.17;6.47;;;;;;;;;;6342386;22;20472;-86
2024/04/13 02:11:32;;;;;;;6.70;6.10;;;;;;;;;;6355234;22;20528;-85
2024/04/13 02:13:59;;;;;;;7.70;6.90;;;;;;;;;;6353573;22;20464;-85
2024/04/13 02:16:31;;;;;;;6.70;6.10;;;;;;;;;;6345723;22;20538;-85
2024/04/13 02:18:57;;;;;;;6.50;5.97;;;;;;;;;;6339638;22;20522;-86
2024/04/13 02:21:27;;;;;;;6.73;6.03;;;;;;;;;;6338249;22;20916;-86
2024/04/13 02:23:54;;;;;;;6.80;6.20;;;;;;;;;;6336759;22;20506;-86
2024/04/13 02:26:24;;;;;;;6.67;6.03;;;;;;;;;;6335987;22;20472;-86
2024/04/13 02:28:51;;;;;;;8.37;6.00;;;;;;;;;;6336717;22;20489;-83
2024/04/13 02:31:20;;;;;;;10.40;5.90;;;;;;;;;;6334908;22;20493;-86
2024/04/13 02:33:49;;;;;;;11.10;6.90;;;;;;;;;;6334555;22;20436;-87
2024/04/13 02:36:18;;;;;;;7.50;6.80;;;13.70;99.90;;;;;;6334527;22;20464;-86
2024/04/13 02:38:46;;;;;;;7.13;6.63;;;13.70;99.90;;;;;;6346917;22;20429;-86
2024/04/13 02:41:15;;;;;;;7.70;6.67;;;13.60;1.00;;;;;;6348023;22;20476;-86
2024/04/13 02:43:41;;;;;;;8.93;8.03;;;13.50;1.00;;;;;;6330877;22;20546;-85
2024/04/13 02:46:11;;;;;;;9.60;7.50;;;13.50;1.00;;;;;;6303283;22;20462;-86
2024/04/13 02:48:38;;;;;;;9.20;8.30;;;13.50;1.00;;;;;;6293478;22;20491;-86
2024/04/13 02:51:10;;;;;;;12.23;8.43;;;13.40;1.00;;;;;;6303425;22;20473;-84
2024/04/13 02:53:37;;;;;;;8.90;8.10;;;13.40;1.00;;;;;;6300889;22;20438;-86
2024/04/13 02:56:06;;;;;;;8.80;7.90;;;13.50;36.10;;;;;;6296279;22;20470;-86
2024/04/13 02:58:32;;;;;;;9.07;8.10;;;13.40;26.70;;;;;;6297122;22;20430;-86
2024/04/13 03:01:03;;;;;;;9.47;8.60;;;13.30;17.20;;;;;;6295397;22;20521;-86
2024/04/13 03:03:29;;;;;;;9.10;8.10;;;13.20;99.90;;;;;;6293171;22;20434;-87
2024/04/13 03:06:02;;;;;;;7.20;6.60;;;13.20;99.90;;;;;;6291755;22;20461;-87
2024/04/13 03:08:31;;;;;;;8.90;7.90;;;13.30;99.90;;;;;;6287833;22;20476;-87
2024/04/13 03:11:01;;;;;;;8.23;7.43;;;13.10;99.90;;;;;;6287576;22;20451;-87
2024/04/13 03:13:28;;;;;;;8.53;6.50;;;13.10;99.90;;;;;;6289792;22;20955;-87
2024/04/13 03:16:01;;;;;;;7.50;6.80;;;13.00;1.00;;;;;;6291968;22;20502;-86
2024/04/13 03:18:27;;;;;;;7.90;7.13;;;13.10;1.00;;;;;;6288680;22;20599;-87
2024/04/13 03:20:57;;;;;;;8.83;6.40;;;13.00;1.00;;;;;;6289896;22;20434;-87
2024/04/13 03:23:23;;;;;;;7.77;7.00;;;13.00;1.00;;;;;;6301617;22;20430;-86
2024/04/13 03:25:54;;;;;;;8.07;6.90;;;13.00;1.00;;;;;;6304943;22;20510;-85
2024/04/13 03:28:21;;;;;;;9.00;6.60;;;13.10;1.00;;;;;;6301142;22;20462;-86
2024/04/13 03:30:50;;;;;;;8.00;6.50;;;13.00;1.00;;;;;;6298968;22;20442;-87
2024/04/13 03:33:16;;;;;;;7.10;6.40;;;13.00;1.00;;;;;;6299545;22;20526;-86
2024/04/13 03:35:45;;;;;;;7.33;6.63;;;13.00;4.20;;;;;;6296704;22;20492;-87
2024/04/13 03:38:13;;;;;;;9.73;7.20;;;13.20;99.90;;;;;;6304066;22;20505;-86
2024/04/13 03:40:44;;;;;;;7.87;7.17;;;13.10;1.00;;;;;;6303416;22;20546;-87
2024/04/13 03:43:16;;;;;;;9.00;6.70;;;12.90;1.00;;;;;;6291911;22;20450;-87
2024/04/13 03:45:42;;;;;;;10.93;6.77;;;12.90;1.00;;;;;;6288789;22;20441;-87
2024/04/13 03:48:10;;;;;;;6.93;6.20;;;13.00;1.00;;;;;;6290138;22;20485;-87
2024/04/13 03:50:39;;;;;;;9.27;6.00;;;13.00;1.00;;;;;;6290878;22;20518;-86
2024/04/13 03:53:08;;;;;;;9.07;6.67;;;13.10;1.00;;;;;;6293669;22;20592;-87
2024/04/13 03:55:34;;;;;;;6.93;6.30;;;12.90;1.00;;;;;;6307117;22;20430;-87
2024/04/13 03:58:03;;;;;;;8.90;7.17;;;12.70;44.30;;;;;;6303150;22;20445;-86
2024/04/13 04:00:32;;;;;;;8.80;7.90;;;12.80;99.90;;;;;;6289856;22;20473;-86
2024/04/13 04:03:00;;;;;;;9.87;8.83;;;12.80;1.00;;;;;;6289306;22;20561;-84
2024/04/13 04:05:27;;;;;;;10.03;9.03;;;12.90;99.90;;;;;;6291168;22;20517;-84
2024/04/13 04:07:56;;;;;;;10.97;9.87;;;12.90;99.90;;;;;;6290749;22;20458;-87
2024/04/13 04:10:22;;;;;;;11.93;10.73;;;12.90;99.90;;;;;;6290522;22;20498;-87
2024/04/13 04:12:53;;;;;;;17.30;11.40;;;12.90;99.90;;;;;;6302063;22;20426;-85
2024/04/13 04:15:25;;;;;;;12.50;10.87;;;13.00;99.90;;;;;;6306864;22;20442;-86
2024/04/13 04:17:57;;;;;;;13.10;11.70;;;12.90;99.90;;;;;;6301065;22;20507;-86
2024/04/13 04:20:41;;;;;;;15.47;11.93;;;12.90;99.90;;;;;;6291560;22;20829;-86
2024/04/13 04:23:16;;;;;;;15.23;12.93;;;12.80;99.90;;;;;;6293290;22;20410;-86
2024/04/13 04:25:48;;;;;;;16.10;13.30;;;12.80;1.00;;;;;;6298651;22;20448;-87
2024/04/13 04:28:17;;;;;;;19.93;13.40;;;12.70;1.00;;;;;;6295608;22;20474;-87
2024/04/13 04:30:47;;;;;;;13.77;12.37;;;12.80;1.00;;;;;;6307204;22;20497;-86
2024/04/13 04:33:26;;;;;;;12.90;11.70;;;12.80;1.00;;;;;;6307863;22;20445;-86
2024/04/13 04:35:54;;;;;;;14.10;10.63;;;12.80;1.00;;;;;;6307193;22;20474;-86
2024/04/13 04:38:36;;;;;;;11.73;10.40;;;13.00;99.90;;;;;;6299142;22;20445;-86
2024/04/13 04:41:04;;;;;;;12.53;11.30;;;12.90;99.90;;;;;;6293246;22;20474;-87
2024/04/13 04:46:17;;;;;;;14.80;11.87;;;12.90;99.90;;;;;;6337416;22;21155;-87
2024/04/13 04:48:47;;;;;;;10.30;9.30;;;13.00;1.00;;;;;;6350158;22;20455;-86
2024/04/13 04:51:29;;;;;;;13.20;11.57;;;12.90;99.90;;;;;;6344850;22;20464;-87
2024/04/13 04:53:55;;;;;;;11.93;9.43;;;13.00;99.90;;;;;;6338096;22;20417;-86
2024/04/13 04:56:26;;;;;;;10.87;9.63;;;13.00;99.90;;;;;;6341113;22;20552;-86
2024/04/13 04:58:58;;;;;;;10.20;8.40;;;13.00;99.90;;;;;;6350121;22;20417;-86
2024/04/13 05:01:32;;;;;;;11.23;8.90;;;;;;;;;;6350264;22;20707;-86
2024/04/13 05:04:01;;;;;;;11.00;9.50;;;13.60;99.90;;;;;;6343672;22;20428;-86
2024/04/13 05:06:34;;;;;;;11.13;9.30;;;13.10;1.00;;;;;;6343636;22;20457;-87
2024/04/13 05:09:11;;;;;;;11.20;10.00;;;13.10;1.00;;;;;;6339702;22;20566;-87
2024/04/13 05:11:48;;;;;;;12.07;9.90;;;13.00;1.00;;;;;;6338373;22;20506;-87
2024/04/13 05:14:19;;;;;;;10.83;9.73;;;13.10;1.00;;;;;;6338316;22;20449;-87
2024/04/13 05:16:51;;;;;;;9.40;8.33;;;13.20;1.00;;;;;;6338414;22;20488;-87
2024/04/13 05:19:38;;;;;;;10.30;9.27;;;13.20;1.00;;;;;;6351846;22;20420;-86
2024/04/13 05:22:29;;;;;;;16.70;8.77;;;13.20;1.00;;;;;;6355638;22;20432;-87
2024/04/13 05:24:57;;;;;;;9.13;8.23;;;;;;;;;;6350849;22;20569;-86
2024/04/13 05:27:39;;;;;;;9.40;8.40;;;13.30;1.00;;;;;;6336376;22;20496;-87
2024/04/13 05:30:15;;;;;;;11.73;9.17;;;13.30;99.90;;;;;;6336320;22;20559;-87
2024/04/13 05:32:44;;;;;;;12.93;8.73;;;13.40;99.90;;;;;;6335945;22;20496;-87
2024/04/13 05:35:18;;;;;;;11.50;9.43;;;13.50;99.90;;;;;;6338473;22;20471;-86
2024/04/13 05:37:50;;;;;;;15.77;9.40;;;13.50;99.90;;;;;;6352801;22;20460;-86
2024/04/13 05:40:31;;;;;;;13.03;9.50;;;13.50;99.90;;;;;;6345667;22;20486;-87
2024/04/13 05:43:28;;;;;;;14.60;9.30;;;13.50;99.90;;;;;;6338607;22;20472;-87
2024/04/13 05:46:15;;;;;;;10.37;9.27;;;13.50;7.00;;;;;;6295163;22;20473;-86
2024/04/13 05:48:59;;;;;;;10.63;9.60;;;13.70;38.70;;;;;;6301593;22;20450;-85
2024/04/13 05:51:30;;;;;;;12.63;8.83;;;13.70;1.00;;;;;;6306741;22;20461;-87
2024/04/13 05:54:15;;;;;;;16.43;10.03;;;13.80;1.00;;;;;;6306978;22;20439;-85
2024/04/13 05:56:46;;;;;;;12.13;9.00;;;13.70;1.00;;;;;;6298378;22;20505;-86
2024/04/13 05:59:42;;;;;;;9.97;8.77;;;13.80;1.00;;;;;;6291532;22;21104;-87
2024/04/13 06:02:31;;;;;;;12.20;9.50;;;14.00;1.00;;;;;;6291149;22;20786;-87
2024/04/13 06:08:11;;;;;;;9.50;8.50;;;13.80;99.90;;;;;;6275337;22;20507;-86
2024/04/13 06:10:41;;;;;;;9.47;7.90;;;14.40;99.90;;;;;;6297229;22;20438;-87
2024/04/13 06:13:31;;;;;;;8.57;7.43;;;14.30;99.90;;;;;;6298093;22;20499;-87
2024/04/13 06:16:02;;;;;;;7.60;6.90;;;14.40;99.90;;;;;;6266792;22;20462;-86
2024/04/13 06:18:43;;;;;;;9.33;8.30;;;14.40;99.90;;;;;;6304407;22;20425;-87
2024/04/13 06:21:10;;;;;;;10.40;7.80;;;14.40;99.90;;;;;;6296191;22;20465;-86
2024/04/13 06:24:03;;;;;;;10.90;9.33;;;14.50;99.90;;;;;;6297857;22;20771;-87
2024/04/13 06:26:34;;;;;;;10.70;9.23;;;14.50;99.90;;;;;;6295143;22;20509;-86
2024/04/13 06:29:29;;;;;;;11.13;8.00;;;14.50;99.90;;;;;;6294243;22;20768;-86
2024/04/13 06:32:00;;;;;;;9.73;8.60;;;;;;;;;;6294505;22;20788;-86
2024/04/13 06:34:32;;;;;;;9.07;8.00;;;;;;;;;;6304468;22;20478;-86
2024/04/13 06:37:04;;;;;;;9.80;8.53;;;;;;;;;;6303931;22;20434;-86
2024/04/13 06:39:39;;;;;;;9.10;8.20;;;;;;;;;;6294830;22;20442;-86
2024/04/13 06:42:07;;;;;;;8.73;7.70;;;;;;;;;;6290979;22;20457;-87
2024/04/13 06:45:02;;;;;;;9.97;7.60;;;;;;;;;;6291045;22;20477;-87
2024/04/13 06:47:31;;;;;;;9.43;7.10;;;;;;;;;;6290341;22;20541;-86
2024/04/13 06:50:13;;;;;;;8.77;7.97;;;;;;;;;;6290086;22;20505;-87
2024/04/13 06:53:16;;;;;;;;;;;;;;;;;;;;;
2024/04/13 06:55:55;;;;;;;9.83;7.47;;;;;;;;;;6293231;22;20437;-87
2024/04/13 06:58:25;;;;;;;9.17;7.03;;;;;;;;;;6295484;22;20461;-87
2024/04/13 07:01:10;;;;;;;7.80;7.10;;;;;;;;;;6303481;22;20469;-86
2024/04/13 07:03:37;;;;;;;8.90;7.23;;;;;;;;;;6305301;22;20556;-84
2024/04/13 07:06:08;;;;;;;7.67;6.90;;;;;;;;;;6299368;22;20482;-86
2024/04/13 07:09:38;;;;;;;8.87;7.97;;;15.90;99.90;;;;;;6299477;22;20967;-87
2024/04/13 07:15:26;;;;;;;9.23;8.30;;;16.00;99.90;;;;;;6154648;23;20524;-86
2024/04/13 07:18:10;;;;;;;7.23;6.47;;;16.20;99.90;;;;;;6158818;23;20452;-86
2024/04/13 07:23:43;;;;;;;7.10;6.40;;;16.40;99.90;;;;;;6291256;22;20500;-87
2024/04/13 07:26:30;;;;;;;11.57;6.50;;;16.50;99.90;;;;;;6293362;22;20486;-87
2024/04/13 07:29:01;;;;;;;10.90;9.23;;;16.60;26.60;;;;;;6291782;22;20519;-86
2024/04/13 07:31:27;;;;;;;8.60;6.90;;;16.70;1.00;;;;;;6292933;22;20386;-87
2024/04/13 07:33:56;;;;;;;6.30;5.70;;;16.60;1.00;;;;;;6297139;22;20514;-87
2024/04/13 07:36:24;;;;;;;7.77;6.97;;;16.80;99.90;;;;;;6302819;22;20462;-86
2024/04/13 07:38:56;;;;;;;7.83;6.93;;;16.80;99.90;;;;;;6297912;22;20473;-86
2024/04/13 07:41:23;;;;;;;9.03;7.87;;;17.00;99.90;;;;;;6304078;22;20548;-86
2024/04/13 07:43:51;;;;;;;10.90;7.00;;;;;;;;;;6304240;22;20446;-86
2024/04/13 07:46:21;;;;;;;7.30;6.60;;;;;;;;;;6300035;22;20475;-86
2024/04/13 07:48:50;;;;;;;6.50;5.90;;;17.30;1.00;;;;;;6293554;22;20459;-85
2024/04/13 07:51:20;;;;;;;7.27;6.57;;;17.30;1.00;;;;;;6299821;22;20447;-86
2024/04/13 07:53:48;;;;;;;9.70;7.00;;;17.30;1.00;;;;;;6305570;22;20398;-86
2024/04/13 07:56:14;;;;;;;7.30;6.70;;;17.30;1.00;;;;;;6300047;22;20446;-86
2024/04/13 07:58:43;;;;;;;7.80;7.10;;;17.30;1.00;;;;;;6303689;22;20508;-86
2024/04/13 08:01:13;;;;;;;10.10;8.17;;;17.20;1.00;;;;;;6290483;22;20454;-87
2024/04/13 08:03:45;;;;;;;10.00;7.10;;;17.20;1.00;;;;;;6289279;22;20458;-87
2024/04/13 08:06:15;;;;;;;15.77;8.30;;;17.20;1.00;;;;;;6290735;22;20987;-87
2024/04/13 08:08:42;;;;;;;10.27;6.90;;;;;;;;;;6290126;22;20507;-87
2024/04/13 08:11:13;;;;;;;8.70;8.00;;;;;;;;;;6288965;22;20529;-86
2024/04/13 08:13:40;;;;;;;10.50;8.40;;;;;;;;;;6290381;22;20412;-86
2024/04/13 08:16:10;;;;;;;10.00;8.63;;;;;;;;;;6290168;22;20519;-86
2024/04/13 08:18:37;;;;;;;10.63;7.77;;;;;;;;;;6292415;22;20968;-86
2024/04/13 08:21:09;;;;;;;8.63;7.70;;;;;;;;;;6290877;22;20500;-87
2024/04/13 08:23:39;;;;;;;9.07;7.27;;;;;;;;;;6290461;22;20512;-86
2024/04/13 08:26:08;;;;;;;10.50;9.40;;;;;;;;;;6302696;22;20462;-86
2024/04/13 08:28:35;;;;;;;10.63;7.57;;;;;;;;;;6305604;22;20499;-86
2024/04/13 08:31:07;;;;;;;9.23;7.17;;;;;;;;;;6305424;22;20503;-86
2024/04/13 08:33:32;;;;;;;7.93;7.13;;;17.50;1.00;;;;;;6303573;22;20458;-86
2024/04/13 08:36:06;;;;;;;8.10;7.30;;;;;;;;;;6293846;22;20541;-86
2024/04/13 08:38:35;;;;;;;6.50;5.80;;;;;;;;;;6291195;22;20517;-87
2024/04/13 08:41:07;;;;;;;5.77;5.23;;;17.80;99.90;;;;;;6291574;22;21039;-87
2024/04/13 08:43:38;;;;;;;6.57;5.60;;;17.90;99.90;;;;;;6291874;22;20436;-89
2024/04/13 08:46:09;;;;;;;6.33;5.20;;;17.90;99.90;;;;;;6304938;22;20495;-87
2024/04/13 08:48:37;;;;;;;9.97;6.23;;;18.10;99.90;;;;;;6294115;22;20521;-86
2024/04/13 08:51:09;;;;;;;6.20;5.60;;;18.10;99.90;;;;;;6290383;22;20475;-87
2024/04/13 08:53:42;;;;;;;6.13;4.87;;;18.10;99.90;;;;;;6289769;22;20521;-87
2024/04/13 08:56:12;;;;;;;5.77;4.43;;;18.00;99.90;;;;;;6298388;22;20479;-85
2024/04/13 08:58:39;;;;;;;4.50;4.10;;;18.10;99.90;;;;;;6292615;22;20459;-85
2024/04/13 09:01:10;;;;;;;4.17;3.87;;;;;;;;;;6289415;22;20520;-85
2024/04/13 09:03:36;;;;;;;4.80;4.20;;;18.40;99.90;;;;;;6291501;22;20770;-86
2024/04/13 09:06:08;;;;;;;5.70;5.30;;;;;;;;;;6291571;22;20523;-86
2024/04/13 09:08:37;;;;;;;4.40;4.03;;;18.30;99.90;;;;;;6289761;22;20416;-84
2024/04/13 09:11:08;;;;;;;6.80;4.40;;;18.30;99.90;;;;;;6288372;22;20462;-85
2024/04/13 09:13:38;;;;;;;5.37;4.87;;;18.30;99.90;;;;;;6291348;22;20459;-85
2024/04/13 09:16:06;;;;;;;6.73;4.43;;;18.40;99.90;;;;;;6291696;22;20527;-86
2024/04/13 09:18:35;;;;;;;7.17;6.47;;;;;;;;;;6291064;22;20516;-86
2024/04/13 09:21:02;;;;;;;6.77;6.10;;;;;;;;;;6291344;22;20503;-86
2024/04/13 09:23:32;;;;;;;7.00;5.23;;;;;;;;;;6289821;22;20456;-85
2024/04/13 09:26:06;;;;;;;5.80;4.53;;;;;;;;;;6291104;22;20475;-84
2024/04/13 09:28:42;;;;;;;6.10;5.23;;;;;;;;;;6302447;22;20514;-83
2024/04/13 09:31:10;;;;;;;5.00;4.60;;;;;;;;;;6306470;22;20455;-85
2024/04/13 09:33:40;;;;;;;4.37;3.97;;;;;;;;;;6301050;22;20515;-85
2024/04/13 09:36:08;;;;;;;4.37;3.97;;;;;;;;;;6294864;22;20472;-86
2024/04/13 09:38:38;;;;;;;6.20;4.20;;;18.90;99.90;;;;;;6303814;22;20510;-86
2024/04/13 09:41:08;;;;;;;11.27;4.93;;;;;;;;;;6301008;22;20498;-85
2024/04/13 09:43:36;;;;;;;7.77;4.57;;;18.90;99.90;;;;;;6295674;22;20504;-85
2024/04/13 09:46:03;;;;;;;4.40;3.80;;;18.90;99.90;;;;;;6290303;22;20471;-86
2024/04/13 09:48:34;;;;;;;5.10;4.53;;;;;;;;;;6290280;22;20459;-89
2024/04/13 09:51:05;;;;;;;6.33;3.60;;;;;;;;;;6299103;22;20541;-88
2024/04/13 10:00:15;;;;;;;5.87;5.37;;;;;;;;;;6291353;22;20493;-88
2024/04/13 10:03:09;;;;;;;3.83;3.53;;;;;;;;;;6290872;22;20504;-88
2024/04/13 10:06:56;;;;;;;4.27;3.37;;;19.40;99.90;;;;;;6285520;22;20521;-88
2024/04/13 10:33:36;;;;;;;5.37;3.57;;;19.90;99.90;;;;;;6111978;23;20467;-84
2024/04/13 11:04:38;;;;;;;3.13;2.93;;;;;;;;;;6013716;23;20478;-87
2024/04/13 11:10:10;;;;;;;4.13;2.80;;;;;;;;;;6066980;23;20557;-87
2024/04/13 11:14:33;;;;;;;;;;;;;;;;;;;;;
2024/04/13 11:27:59;;;;;;;4.80;2.40;;;;;;;;;;6116246;23;20503;-86
2024/04/13 11:31:06;;;;;;;5.47;2.90;;;21.20;99.90;;;;;;6256239;22;20452;-86
2024/04/13 11:36:44;;;;;;;3.67;2.57;;;;;;;;;;6256889;22;20562;-87
2024/04/13 11:39:11;;;;;;;5.00;2.53;;;;;;;;;;6402760;22;20502;-87
2024/04/13 11:41:43;;;;;;;2.73;2.53;;;;;;;;;;6389965;22;20455;-87
2024/04/13 11:44:17;;;;;;;4.60;2.80;;;;;;;;;;6383753;22;20486;-89
2024/04/13 11:46:47;;;;;;;3.47;2.80;;;;;;;;;;6384251;22;20470;-86
2024/04/13 11:49:14;;;;;;;4.00;3.03;;;21.10;99.90;;;;;;6384891;22;20467;-89
2024/04/13 11:51:43;;;;;;;2.87;2.60;;;;;;;;;;6383241;22;20515;-88
2024/04/13 11:54:11;;;;;;;2.90;2.30;;;21.30;99.90;;;;;;6397537;22;20494;-89
2024/04/13 11:56:47;;;;;;;2.90;2.70;;;21.30;99.90;;;;;;6399486;22;20479;-88
2024/04/13 11:59:14;;;;;;;3.90;3.60;;;;;;;;;;6398945;22;20454;-88
2024/04/13 12:01:43;;;;;;;3.00;1.93;;;;;;;;;;6402865;22;20544;-88
2024/04/13 12:04:09;;;;;;;3.33;2.27;;;;;;;;;;6399230;22;20494;-90
2024/04/13 12:06:39;;;;;;;5.23;2.20;;;;;;;;;;6394847;22;20515;-88
2024/04/13 12:09:06;;;;;;;3.10;2.03;;;;;;;;;;6395142;22;20511;-88
2024/04/13 12:11:36;;;;;;;2.33;2.00;;;;;;;;;;6396123;22;20534;-89
2024/04/13 12:14:04;;;;;;;3.00;2.47;;;21.70;75.80;;;;;;6393837;22;20503;-89
2024/04/13 12:16:33;;;;;;;2.10;1.90;;;21.70;56.60;;;;;;6392727;22;20560;-89
2024/04/13 12:18:59;;;;;;;3.27;1.83;;;21.50;28.40;;;;;;6391577;22;20518;-88
2024/04/13 12:21:29;;;;;;;2.20;2.00;;;21.50;21.10;;;;;;6388262;22;20494;-88
2024/04/13 12:23:55;;;;;;;2.57;1.87;;;21.60;30.50;;;;;;6390752;22;20455;-89
2024/04/13 12:26:24;;;;;;;2.27;2.07;;;21.40;25.30;;;;;;6390701;22;20542;-90
2024/04/13 12:28:50;;;;;;;2.30;1.80;;;21.50;27.80;;;;;;6393261;22;20454;-90
2024/04/13 12:31:21;;;;;;;3.60;1.90;;;21.40;23.40;;;;;;6385893;22;20455;-88
2024/04/13 12:33:50;;;;;;;2.97;2.37;;;21.50;39.40;;;;;;6385477;22;20600;-89
2024/04/13 12:36:19;;;;;;;5.20;2.57;;;21.40;52.50;;;;;;6360937;22;20500;-88
2024/04/13 12:38:45;;;;;;;3.77;2.23;;;21.60;68.80;;;;;;6339354;22;20982;-89
2024/04/13 12:41:13;;;;;;;2.37;2.17;;;21.50;47.90;;;;;;6336239;22;20479;-90
2024/04/13 12:43:41;;;;;;;2.90;2.63;;;;;;;;;;6335689;22;20556;-88
2024/04/13 12:46:10;;;;;;;1.93;1.83;;;;;;;;;;6337401;22;20573;-89
2024/04/13 12:48:39;;;;;;;2.57;1.83;;;;;;;;;;6335588;22;20487;-89
2024/04/13 12:51:17;;;;;;;3.23;1.97;;;;;;;;;;6341777;22;20516;-90
2024/04/13 12:53:48;;;;;;;2.40;2.10;;;;;;;;;;6354535;22;20463;-89
2024/04/13 12:56:19;;;;;;;3.27;1.70;;;;;;;;;;6354885;22;20502;-87
2024/04/13 12:58:47;;;;;;;2.90;2.23;;;;;;;;;;6352775;22;20457;-88
2024/04/13 13:01:18;;;;;;;2.40;2.20;;;;;;;;;;6350930;22;20922;-89
2024/04/13 13:03:47;;;;;;;2.20;2.00;;;;;;;;;;6345107;22;20465;-89
2024/04/13 13:06:16;;;;;;;4.00;3.27;;;21.90;79.40;;;;;;6341580;22;20480;-88
2024/04/13 13:08:41;;;;;;;3.90;2.30;;;21.90;99.90;;;;;;6339399;22;20462;-89
2024/04/13 13:11:10;;;;;;;2.73;2.53;;;22.00;49.20;;;;;;6343676;22;20461;-89
2024/04/13 13:13:36;;;;;;;4.53;1.93;;;22.10;41.70;;;;;;6344871;22;20219;-89
2024/04/13 13:16:06;;;;;;;3.30;2.03;;;21.90;34.00;;;;;;6343260;22;20480;-89
2024/04/13 13:18:32;;;;;;;3.50;2.50;;;21.90;31.00;;;;;;6336023;22;20461;-90
2024/04/13 13:21:04;;;;;;;2.40;2.00;;;21.80;29.80;;;;;;6336633;22;20460;-90
2024/04/13 13:23:30;;;;;;;2.83;2.20;;;21.90;27.40;;;;;;6336592;22;20461;-89
2024/04/13 13:25:58;;;;;;;3.97;2.80;;;21.90;40.10;;;;;;6337504;22;20477;-89
2024/04/13 13:28:24;;;;;;;2.80;2.60;;;21.90;28.80;;;;;;6349892;22;20535;-89
2024/04/13 13:34:06;;;;;;;4.33;3.33;;;22.20;42.60;;;;;;6334788;22;20773;-89
2024/04/13 13:36:37;;;;;;;4.67;3.07;;;;;;;;;;6337540;22;20477;-89
2024/04/13 13:39:07;;;;;;;2.40;2.20;;;;;;;;;;6336344;22;20574;-89
2024/04/13 13:41:34;;;;;;;3.20;2.03;;;;;;;;;;6334987;22;20457;-89
2024/04/13 13:44:04;;;;;;;3.10;2.60;;;;;;;;;;6336371;22;20508;-89
2024/04/13 13:46:32;;;;;;;4.07;2.87;;;;;;;;;;6336858;22;20556;-88
2024/04/13 13:49:02;;;;;;;2.23;2.07;;;;;;;;;;6337201;22;20512;-89
2024/04/13 13:51:28;;;;;;;2.90;2.50;;;;;;;;;;6339092;22;20456;-90
2024/04/13 13:54:05;;;;;;;2.23;2.10;;;;;;;;;;6334085;22;20521;-89
2024/04/13 13:56:31;;;;;;;2.60;2.50;;;;;;;;;;6335137;22;20468;-89
2024/04/13 13:59:00;;;;;;;5.90;2.20;;;22.30;92.00;;;;;;6333955;22;20461;-89
2024/04/13 14:01:26;;;;;;;2.40;2.20;;;;;;;;;;6335556;22;20461;-90
2024/04/13 14:03:55;;;;;;;2.17;1.97;;;22.30;84.90;;;;;;6339280;22;20472;-89
2024/04/13 14:06:21;;;;;;;2.30;2.20;;;22.40;8.40;;;;;;6335865;22;20472;-90
2024/04/13 14:08:51;;;;;;;2.70;2.50;;;22.40;1.00;;;;;;6334419;22;20513;-88
2024/04/13 14:11:20;;;;;;;3.47;3.20;;;22.30;1.00;;;;;;6342356;22;20453;-90
2024/04/13 14:13:49;;;;;;;6.20;3.37;;;22.10;1.00;;;;;;6345605;22;20547;-90
2024/04/13 14:16:15;;;;;;;3.63;3.30;;;22.00;1.00;;;;;;6345112;22;20473;-88
2024/04/13 14:18:45;;;;;;;3.43;2.40;;;22.00;9.20;;;;;;6338771;22;20464;-90
2024/04/13 14:21:11;;;;;;;3.10;2.83;;;22.00;1.00;;;;;;6335323;22;20440;-90
2024/04/13 14:23:40;;;;;;;3.33;3.03;;;22.50;11.70;;;;;;6334983;22;20572;-89
2024/04/13 14:26:06;;;;;;;4.53;2.80;;;22.00;16.20;;;;;;6337156;22;20232;-89
2024/04/13 14:28:37;;;;;;;5.77;3.30;;;21.90;26.40;;;;;;6350030;22;20525;-89
2024/04/13 14:31:03;;;;;;;6.33;3.30;;;21.90;29.90;;;;;;6334943;22;20460;-89
2024/04/13 14:33:33;;;;;;;2.87;2.67;;;;;;;;;;6333775;22;20456;-89
2024/04/13 14:35:59;;;;;;;4.50;4.07;;;21.70;72.40;;;;;;6333332;22;20480;-88
2024/04/13 14:38:28;;;;;;;2.70;2.50;;;21.70;97.40;;;;;;6334280;22;20468;-89
2024/04/13 14:40:54;;;;;;;12.13;3.50;;;21.80;8.20;;;;;;6335602;22;20508;-88
2024/04/13 14:43:25;;;;;;;3.83;3.53;;;21.70;13.00;;;;;;6340890;22;20453;-89
2024/04/13 14:45:56;;;;;;;3.53;2.40;;;;;;;;;;6349020;22;20521;-87
2024/04/13 14:48:25;;;;;;;8.60;7.77;;;;;;;;;;6351126;22;20456;-89
2024/04/13 14:50:52;;;;;;;4.00;3.60;;;;;;;;;;6335825;22;20465;-88
2024/04/13 14:53:22;;;;;;;3.03;2.73;;;;;;;;;;6350406;22;20527;-88
2024/04/13 14:55:50;;;;;;;5.73;2.87;;;;;;;;;;6352314;22;20519;-88
2024/04/13 14:58:18;;;;;;;3.20;2.90;;;21.60;75.40;;;;;;6353808;22;20521;-88
2024/04/13 15:00:44;;;;;;;4.00;2.60;;;21.70;25.90;;;;;;6346103;22;20786;-88
2024/04/13 15:03:18;;;;;;;4.33;3.00;;;21.60;18.30;;;;;;6338459;22;20456;-87
2024/04/13 15:05:44;;;;;;;2.70;2.50;;;21.50;37.00;;;;;;6340516;22;20488;-88
2024/04/13 15:08:13;;;;;;;4.30;2.70;;;21.40;17.80;;;;;;6332889;22;20456;-87
2024/04/13 15:10:41;;;;;;;2.83;2.60;;;21.40;32.20;;;;;;6332440;22;20489;-89
2024/04/13 15:13:09;;;;;;;2.30;2.20;;;21.30;65.20;;;;;;6332795;22;20531;-88
2024/04/13 15:15:35;;;;;;;2.33;2.23;;;;;;;;;;6335832;22;20472;-88
2024/04/13 15:18:04;;;;;;;3.07;2.47;;;21.30;71.50;;;;;;6332816;22;20460;-89
2024/04/13 15:20:33;;;;;;;2.63;2.43;;;21.20;50.30;;;;;;6333716;22;20512;-88
2024/04/13 15:23:01;;;;;;;2.63;2.43;;;21.20;99.50;;;;;;6334755;22;20985;-88